sensor_id;sensor_type;location;lat;lon;timestamp;P1;durP1;ratioP1;P2;durP2;ratioP2
8536;SDS011;4306;50.210;10.628;2023-02-12T00:01:01;35.00;;;18.05;;
8536;SDS011;4306;50.210;10.628;2023-02-12T00:03:28;39.20;;;19.88;;
8536;SDS011;4306;50.210;10.628;2023-02-12T00:05:59;39.17;;;19.92;;
8536;SDS011;4306;50.210;10.628;2023-02-12T00:08:28;37.08;;;20.63;;
8536;SDS011;4306;50.210;10.628;2023-02-12T00:10:55;39.47;;;20.03;;
8536;SDS011;4306;50.210;10.628;2023-02-12T00:13:22;39.17;;;20.38;;
8536;SDS011;4306;50.210;10.628;2023-02-12T00:15:50;43.42;;;22.77;;
8536;SDS011;4306;50.210;10.628;2023-02-12T00:18:16;42.72;;;21.98;;
8536;SDS011;4306;50.210;10.628;2023-02-12T00:20:43;46.50;;;24.00;;
8536;SDS011;4306;50.210;10.628;2023-02-12T00:23:10;37.50;;;20.75;;
8536;SDS011;4306;50.210;10.628;2023-02-12T00:25:40;42.75;;;20.08;;
8536;SDS011;4306;50.210;10.628;2023-02-12T00:28:07;38.37;;;20.53;;
8536;SDS011;4306;50.210;10.628;2023-02-12T00:30:34;36.05;;;19.10;;
8536;SDS011;4306;50.210;10.628;2023-02-12T00:33:01;37.15;;;20.75;;
8536;SDS011;4306;50.210;10.628;2023-02-12T00:35:28;38.83;;;20.13;;
8536;SDS011;4306;50.210;10.628;2023-02-12T00:37:55;35.60;;;19.80;;
8536;SDS011;4306;50.210;10.628;2023-02-12T00:40:22;35.15;;;20.13;;
8536;SDS011;4306;50.210;10.628;2023-02-12T00:42:50;37.97;;;19.70;;
8536;SDS011;4306;50.210;10.628;2023-02-12T00:45:17;40.67;;;20.42;;
8536;SDS011;4306;50.210;10.628;2023-02-12T00:47:44;38.55;;;20.35;;
8536;SDS011;4306;50.210;10.628;2023-02-12T00:50:11;39.10;;;19.65;;
8536;SDS011;4306;50.210;10.628;2023-02-12T00:52:37;32.20;;;19.00;;
8536;SDS011;4306;50.210;10.628;2023-02-12T00:55:04;33.08;;;17.88;;
8536;SDS011;4306;50.210;10.628;2023-02-12T00:57:31;30.83;;;17.00;;
8536;SDS011;4306;50.210;10.628;2023-02-12T00:59:59;31.80;;;17.42;;
8536;SDS011;4306;50.210;10.628;2023-02-12T01:02:26;37.28;;;19.05;;
8536;SDS011;4306;50.210;10.628;2023-02-12T01:04:53;36.43;;;19.33;;
8536;SDS011;4306;50.210;10.628;2023-02-12T01:07:20;33.30;;;17.40;;
8536;SDS011;4306;50.210;10.628;2023-02-12T01:09:47;33.85;;;17.65;;
8536;SDS011;4306;50.210;10.628;2023-02-12T01:12:14;35.95;;;17.08;;
8536;SDS011;4306;50.210;10.628;2023-02-12T01:14:41;31.70;;;17.73;;
8536;SDS011;4306;50.210;10.628;2023-02-12T01:17:09;30.58;;;16.10;;
8536;SDS011;4306;50.210;10.628;2023-02-12T01:19:36;33.88;;;17.65;;
8536;SDS011;4306;50.210;10.628;2023-02-12T01:22:02;33.38;;;16.90;;
8536;SDS011;4306;50.210;10.628;2023-02-12T01:24:29;33.17;;;16.20;;
8536;SDS011;4306;50.210;10.628;2023-02-12T01:26:56;33.70;;;17.47;;
8536;SDS011;4306;50.210;10.628;2023-02-12T01:29:23;30.40;;;16.95;;
8536;SDS011;4306;50.210;10.628;2023-02-12T01:31:50;31.67;;;16.33;;
8536;SDS011;4306;50.210;10.628;2023-02-12T01:34:18;33.03;;;17.77;;
8536;SDS011;4306;50.210;10.628;2023-02-12T01:36:45;35.40;;;19.15;;
8536;SDS011;4306;50.210;10.628;2023-02-12T01:39:12;34.37;;;18.13;;
8536;SDS011;4306;50.210;10.628;2023-02-12T01:41:39;31.53;;;17.00;;
8536;SDS011;4306;50.210;10.628;2023-02-12T01:44:09;31.27;;;17.35;;
8536;SDS011;4306;50.210;10.628;2023-02-12T01:46:38;32.37;;;16.37;;
8536;SDS011;4306;50.210;10.628;2023-02-12T01:49:11;29.90;;;17.05;;
8536;SDS011;4306;50.210;10.628;2023-02-12T01:51:42;31.90;;;15.93;;
8536;SDS011;4306;50.210;10.628;2023-02-12T01:54:11;31.60;;;15.43;;
8536;SDS011;4306;50.210;10.628;2023-02-12T01:56:40;32.83;;;16.60;;
8536;SDS011;4306;50.210;10.628;2023-02-12T01:59:08;31.75;;;17.15;;
8536;SDS011;4306;50.210;10.628;2023-02-12T02:01:36;31.20;;;17.83;;
8536;SDS011;4306;50.210;10.628;2023-02-12T02:04:04;33.27;;;16.67;;
8536;SDS011;4306;50.210;10.628;2023-02-12T02:06:38;34.13;;;17.10;;
8536;SDS011;4306;50.210;10.628;2023-02-12T02:09:11;30.80;;;16.43;;
8536;SDS011;4306;50.210;10.628;2023-02-12T02:11:39;31.23;;;16.27;;
8536;SDS011;4306;50.210;10.628;2023-02-12T02:14:23;32.42;;;16.98;;
8536;SDS011;4306;50.210;10.628;2023-02-12T02:17:02;33.80;;;17.85;;
8536;SDS011;4306;50.210;10.628;2023-02-12T02:19:42;32.33;;;17.50;;
8536;SDS011;4306;50.210;10.628;2023-02-12T02:22:27;35.33;;;16.93;;
8536;SDS011;4306;50.210;10.628;2023-02-12T02:28:01;32.83;;;17.20;;
8536;SDS011;4306;50.210;10.628;2023-02-12T02:30:40;29.90;;;16.77;;
8536;SDS011;4306;50.210;10.628;2023-02-12T02:33:17;33.10;;;17.93;;
8536;SDS011;4306;50.210;10.628;2023-02-12T02:35:52;33.80;;;16.27;;
8536;SDS011;4306;50.210;10.628;2023-02-12T02:38:28;35.70;;;17.63;;
8536;SDS011;4306;50.210;10.628;2023-02-12T02:41:01;34.30;;;17.53;;
8536;SDS011;4306;50.210;10.628;2023-02-12T02:43:33;31.57;;;17.83;;
8536;SDS011;4306;50.210;10.628;2023-02-12T02:46:06;31.50;;;17.07;;
8536;SDS011;4306;50.210;10.628;2023-02-12T02:48:37;32.42;;;17.63;;
8536;SDS011;4306;50.210;10.628;2023-02-12T02:51:08;32.03;;;17.20;;
8536;SDS011;4306;50.210;10.628;2023-02-12T02:53:38;32.03;;;17.73;;
8536;SDS011;4306;50.210;10.628;2023-02-12T02:56:11;31.57;;;16.43;;
8536;SDS011;4306;50.210;10.628;2023-02-12T02:58:41;33.33;;;18.67;;
8536;SDS011;4306;50.210;10.628;2023-02-12T03:01:13;32.20;;;17.80;;
8536;SDS011;4306;50.210;10.628;2023-02-12T03:03:44;32.17;;;17.10;;
8536;SDS011;4306;50.210;10.628;2023-02-12T03:06:15;34.13;;;18.97;;
8536;SDS011;4306;50.210;10.628;2023-02-12T03:08:48;36.20;;;20.13;;
8536;SDS011;4306;50.210;10.628;2023-02-12T03:11:18;41.88;;;20.67;;
8536;SDS011;4306;50.210;10.628;2023-02-12T03:13:49;41.40;;;22.20;;
8536;SDS011;4306;50.210;10.628;2023-02-12T03:16:24;41.20;;;23.50;;
8536;SDS011;4306;50.210;10.628;2023-02-12T03:18:53;38.83;;;21.38;;
8536;SDS011;4306;50.210;10.628;2023-02-12T03:21:26;38.80;;;21.27;;
8536;SDS011;4306;50.210;10.628;2023-02-12T03:23:59;33.03;;;19.03;;
8536;SDS011;4306;50.210;10.628;2023-02-12T03:26:33;35.80;;;19.00;;
8536;SDS011;4306;50.210;10.628;2023-02-12T03:29:05;39.87;;;20.27;;
8536;SDS011;4306;50.210;10.628;2023-02-12T03:31:35;33.97;;;18.40;;
8536;SDS011;4306;50.210;10.628;2023-02-12T03:34:08;36.23;;;19.00;;
8536;SDS011;4306;50.210;10.628;2023-02-12T03:36:40;33.08;;;18.52;;
8536;SDS011;4306;50.210;10.628;2023-02-12T03:39:12;32.63;;;17.30;;
8536;SDS011;4306;50.210;10.628;2023-02-12T03:41:46;32.03;;;18.13;;
8536;SDS011;4306;50.210;10.628;2023-02-12T03:44:21;32.13;;;17.23;;
8536;SDS011;4306;50.210;10.628;2023-02-12T03:46:59;29.23;;;15.57;;
8536;SDS011;4306;50.210;10.628;2023-02-12T03:49:31;27.17;;;15.10;;
8536;SDS011;4306;50.210;10.628;2023-02-12T03:52:03;25.55;;;14.75;;
8536;SDS011;4306;50.210;10.628;2023-02-12T03:54:30;25.70;;;14.47;;
8536;SDS011;4306;50.210;10.628;2023-02-12T03:56:59;26.40;;;15.33;;
8536;SDS011;4306;50.210;10.628;2023-02-12T03:59:29;27.00;;;14.23;;
8536;SDS011;4306;50.210;10.628;2023-02-12T04:01:56;27.07;;;14.30;;
8536;SDS011;4306;50.210;10.628;2023-02-12T04:04:25;23.95;;;13.68;;
8536;SDS011;4306;50.210;10.628;2023-02-12T04:06:53;25.00;;;13.33;;
8536;SDS011;4306;50.210;10.628;2023-02-12T04:09:21;24.15;;;12.80;;
8536;SDS011;4306;50.210;10.628;2023-02-12T04:11:53;23.27;;;12.67;;
8536;SDS011;4306;50.210;10.628;2023-02-12T04:14:30;25.35;;;13.77;;
8536;SDS011;4306;50.210;10.628;2023-02-12T04:17:08;25.20;;;12.88;;
8536;SDS011;4306;50.210;10.628;2023-02-12T04:19:47;25.17;;;13.43;;
8536;SDS011;4306;50.210;10.628;2023-02-12T04:22:27;23.40;;;13.77;;
8536;SDS011;4306;50.210;10.628;2023-02-12T04:25:06;26.55;;;13.38;;
8536;SDS011;4306;50.210;10.628;2023-02-12T04:27:43;23.02;;;13.80;;
8536;SDS011;4306;50.210;10.628;2023-02-12T04:30:17;24.38;;;14.02;;
8536;SDS011;4306;50.210;10.628;2023-02-12T04:32:51;27.20;;;14.13;;
8536;SDS011;4306;50.210;10.628;2023-02-12T04:35:22;26.50;;;13.60;;
8536;SDS011;4306;50.210;10.628;2023-02-12T04:37:53;23.55;;;13.75;;
8536;SDS011;4306;50.210;10.628;2023-02-12T04:40:24;24.77;;;13.47;;
8536;SDS011;4306;50.210;10.628;2023-02-12T04:42:51;26.10;;;13.25;;
8536;SDS011;4306;50.210;10.628;2023-02-12T04:45:21;23.20;;;12.85;;
8536;SDS011;4306;50.210;10.628;2023-02-12T04:47:53;23.20;;;13.27;;
8536;SDS011;4306;50.210;10.628;2023-02-12T04:50:20;21.80;;;12.23;;
8536;SDS011;4306;50.210;10.628;2023-02-12T04:52:47;29.40;;;14.23;;
8536;SDS011;4306;50.210;10.628;2023-02-12T04:55:14;23.75;;;13.68;;
8536;SDS011;4306;50.210;10.628;2023-02-12T04:57:41;25.67;;;14.73;;
8536;SDS011;4306;50.210;10.628;2023-02-12T05:00:08;31.20;;;15.63;;
8536;SDS011;4306;50.210;10.628;2023-02-12T05:02:38;31.90;;;17.13;;
8536;SDS011;4306;50.210;10.628;2023-02-12T05:05:06;33.63;;;17.15;;
8536;SDS011;4306;50.210;10.628;2023-02-12T05:07:33;30.60;;;15.18;;
8536;SDS011;4306;50.210;10.628;2023-02-12T05:10:00;29.35;;;15.65;;
8536;SDS011;4306;50.210;10.628;2023-02-12T05:12:27;33.08;;;19.02;;
8536;SDS011;4306;50.210;10.628;2023-02-12T05:14:54;30.13;;;15.50;;
8536;SDS011;4306;50.210;10.628;2023-02-12T05:17:21;30.70;;;15.47;;
8536;SDS011;4306;50.210;10.628;2023-02-12T05:19:48;29.77;;;16.70;;
8536;SDS011;4306;50.210;10.628;2023-02-12T05:22:16;27.30;;;15.57;;
8536;SDS011;4306;50.210;10.628;2023-02-12T05:24:43;33.33;;;17.23;;
8536;SDS011;4306;50.210;10.628;2023-02-12T05:27:11;32.33;;;15.63;;
8536;SDS011;4306;50.210;10.628;2023-02-12T05:29:38;29.10;;;15.50;;
8536;SDS011;4306;50.210;10.628;2023-02-12T05:32:05;32.17;;;17.27;;
8536;SDS011;4306;50.210;10.628;2023-02-12T05:34:31;34.37;;;18.93;;
8536;SDS011;4306;50.210;10.628;2023-02-12T05:36:59;38.10;;;20.23;;
8536;SDS011;4306;50.210;10.628;2023-02-12T05:39:27;41.88;;;23.00;;
8536;SDS011;4306;50.210;10.628;2023-02-12T05:41:54;44.50;;;24.38;;
8536;SDS011;4306;50.210;10.628;2023-02-12T05:44:21;42.57;;;21.60;;
8536;SDS011;4306;50.210;10.628;2023-02-12T05:46:47;39.63;;;20.20;;
8536;SDS011;4306;50.210;10.628;2023-02-12T05:49:14;44.40;;;21.73;;
8536;SDS011;4306;50.210;10.628;2023-02-12T05:51:41;45.05;;;22.58;;
8536;SDS011;4306;50.210;10.628;2023-02-12T05:54:08;45.03;;;22.20;;
8536;SDS011;4306;50.210;10.628;2023-02-12T05:56:40;40.63;;;22.02;;
8536;SDS011;4306;50.210;10.628;2023-02-12T05:59:11;44.50;;;23.23;;
8536;SDS011;4306;50.210;10.628;2023-02-12T06:01:41;47.93;;;23.30;;
8536;SDS011;4306;50.210;10.628;2023-02-12T06:04:10;47.95;;;23.52;;
8536;SDS011;4306;50.210;10.628;2023-02-12T06:06:40;45.67;;;22.83;;
8536;SDS011;4306;50.210;10.628;2023-02-12T06:09:07;38.75;;;22.23;;
8536;SDS011;4306;50.210;10.628;2023-02-12T06:11:34;41.73;;;21.73;;
8536;SDS011;4306;50.210;10.628;2023-02-12T06:14:03;47.38;;;24.23;;
8536;SDS011;4306;50.210;10.628;2023-02-12T06:16:32;43.67;;;23.10;;
8536;SDS011;4306;50.210;10.628;2023-02-12T06:19:00;47.30;;;24.05;;
8536;SDS011;4306;50.210;10.628;2023-02-12T06:21:29;44.37;;;22.70;;
8536;SDS011;4306;50.210;10.628;2023-02-12T06:23:56;46.38;;;23.70;;
8536;SDS011;4306;50.210;10.628;2023-02-12T06:26:23;43.33;;;23.23;;
8536;SDS011;4306;50.210;10.628;2023-02-12T06:28:52;51.25;;;24.27;;
8536;SDS011;4306;50.210;10.628;2023-02-12T06:31:20;42.37;;;22.77;;
8536;SDS011;4306;50.210;10.628;2023-02-12T06:33:49;45.20;;;22.03;;
8536;SDS011;4306;50.210;10.628;2023-02-12T06:36:17;47.33;;;23.33;;
8536;SDS011;4306;50.210;10.628;2023-02-12T06:38:44;49.63;;;23.60;;
8536;SDS011;4306;50.210;10.628;2023-02-12T06:41:12;42.50;;;23.02;;
8536;SDS011;4306;50.210;10.628;2023-02-12T06:43:39;48.10;;;23.13;;
8536;SDS011;4306;50.210;10.628;2023-02-12T06:46:07;46.42;;;23.70;;
8536;SDS011;4306;50.210;10.628;2023-02-12T06:48:34;47.38;;;22.83;;
8536;SDS011;4306;50.210;10.628;2023-02-12T06:51:05;45.10;;;23.55;;
8536;SDS011;4306;50.210;10.628;2023-02-12T06:53:33;51.85;;;24.83;;
8536;SDS011;4306;50.210;10.628;2023-02-12T06:56:00;46.88;;;22.60;;
8536;SDS011;4306;50.210;10.628;2023-02-12T06:58:27;48.15;;;23.55;;
8536;SDS011;4306;50.210;10.628;2023-02-12T07:00:54;49.57;;;23.63;;
8536;SDS011;4306;50.210;10.628;2023-02-12T07:03:22;51.08;;;24.27;;
8536;SDS011;4306;50.210;10.628;2023-02-12T07:05:49;52.20;;;24.42;;
8536;SDS011;4306;50.210;10.628;2023-02-12T07:08:16;50.33;;;23.73;;
8536;SDS011;4306;50.210;10.628;2023-02-12T07:10:46;49.67;;;24.00;;
8536;SDS011;4306;50.210;10.628;2023-02-12T07:13:14;51.78;;;23.13;;
8536;SDS011;4306;50.210;10.628;2023-02-12T07:15:41;47.92;;;24.75;;
8536;SDS011;4306;50.210;10.628;2023-02-12T07:18:08;58.50;;;25.15;;
8536;SDS011;4306;50.210;10.628;2023-02-12T07:20:36;49.72;;;24.10;;
8536;SDS011;4306;50.210;10.628;2023-02-12T07:23:03;52.53;;;23.63;;
8536;SDS011;4306;50.210;10.628;2023-02-12T07:25:29;45.53;;;23.85;;
8536;SDS011;4306;50.210;10.628;2023-02-12T07:27:56;51.60;;;24.60;;
8536;SDS011;4306;50.210;10.628;2023-02-12T07:30:23;46.92;;;24.70;;
8536;SDS011;4306;50.210;10.628;2023-02-12T07:32:50;46.73;;;23.67;;
8536;SDS011;4306;50.210;10.628;2023-02-12T07:35:17;48.60;;;24.48;;
8536;SDS011;4306;50.210;10.628;2023-02-12T07:37:45;45.20;;;24.08;;
8536;SDS011;4306;50.210;10.628;2023-02-12T07:40:12;47.73;;;24.03;;
8536;SDS011;4306;50.210;10.628;2023-02-12T07:42:39;50.03;;;24.38;;
8536;SDS011;4306;50.210;10.628;2023-02-12T07:45:06;45.67;;;24.90;;
8536;SDS011;4306;50.210;10.628;2023-02-12T07:47:34;47.90;;;22.83;;
8536;SDS011;4306;50.210;10.628;2023-02-12T07:50:02;49.15;;;24.77;;
8536;SDS011;4306;50.210;10.628;2023-02-12T07:52:31;43.58;;;23.30;;
8536;SDS011;4306;50.210;10.628;2023-02-12T07:54:59;46.70;;;24.77;;
8536;SDS011;4306;50.210;10.628;2023-02-12T07:57:26;44.95;;;23.58;;
8536;SDS011;4306;50.210;10.628;2023-02-12T07:59:53;51.67;;;25.08;;
8536;SDS011;4306;50.210;10.628;2023-02-12T08:02:21;52.50;;;26.25;;
8536;SDS011;4306;50.210;10.628;2023-02-12T08:04:49;55.47;;;27.00;;
8536;SDS011;4306;50.210;10.628;2023-02-12T08:07:20;57.60;;;28.65;;
8536;SDS011;4306;50.210;10.628;2023-02-12T08:09:48;59.10;;;28.77;;
8536;SDS011;4306;50.210;10.628;2023-02-12T08:12:17;54.95;;;28.95;;
8536;SDS011;4306;50.210;10.628;2023-02-12T08:14:44;56.90;;;28.53;;
8536;SDS011;4306;50.210;10.628;2023-02-12T08:17:11;55.60;;;27.02;;
8536;SDS011;4306;50.210;10.628;2023-02-12T08:19:38;54.77;;;28.27;;
8536;SDS011;4306;50.210;10.628;2023-02-12T08:22:05;60.03;;;28.33;;
8536;SDS011;4306;50.210;10.628;2023-02-12T08:24:32;55.25;;;29.55;;
8536;SDS011;4306;50.210;10.628;2023-02-12T08:26:59;53.13;;;27.13;;
8536;SDS011;4306;50.210;10.628;2023-02-12T08:29:28;53.25;;;26.83;;
8536;SDS011;4306;50.210;10.628;2023-02-12T08:31:56;53.83;;;27.87;;
8536;SDS011;4306;50.210;10.628;2023-02-12T08:34:25;53.80;;;28.43;;
8536;SDS011;4306;50.210;10.628;2023-02-12T08:36:53;49.33;;;25.60;;
8536;SDS011;4306;50.210;10.628;2023-02-12T08:39:21;44.35;;;23.08;;
8536;SDS011;4306;50.210;10.628;2023-02-12T08:41:50;52.20;;;25.93;;
8536;SDS011;4306;50.210;10.628;2023-02-12T08:44:18;49.73;;;24.70;;
8536;SDS011;4306;50.210;10.628;2023-02-12T08:46:47;49.47;;;25.83;;
8536;SDS011;4306;50.210;10.628;2023-02-12T08:49:16;45.30;;;24.38;;
8536;SDS011;4306;50.210;10.628;2023-02-12T08:51:44;45.95;;;24.27;;
8536;SDS011;4306;50.210;10.628;2023-02-12T08:54:13;47.72;;;24.80;;
8536;SDS011;4306;50.210;10.628;2023-02-12T08:56:42;44.55;;;23.67;;
8536;SDS011;4306;50.210;10.628;2023-02-12T08:59:10;47.25;;;23.95;;
8536;SDS011;4306;50.210;10.628;2023-02-12T09:01:37;45.13;;;24.50;;
8536;SDS011;4306;50.210;10.628;2023-02-12T09:04:07;43.20;;;22.67;;
8536;SDS011;4306;50.210;10.628;2023-02-12T09:06:39;45.35;;;23.17;;
8536;SDS011;4306;50.210;10.628;2023-02-12T09:09:06;49.17;;;23.98;;
8536;SDS011;4306;50.210;10.628;2023-02-12T09:11:32;49.03;;;24.40;;
8536;SDS011;4306;50.210;10.628;2023-02-12T09:14:01;46.38;;;23.20;;
8536;SDS011;4306;50.210;10.628;2023-02-12T09:16:30;45.30;;;22.60;;
8536;SDS011;4306;50.210;10.628;2023-02-12T09:18:58;47.67;;;24.10;;
8536;SDS011;4306;50.210;10.628;2023-02-12T09:21:27;44.75;;;22.27;;
8536;SDS011;4306;50.210;10.628;2023-02-12T09:23:54;45.92;;;21.83;;
8536;SDS011;4306;50.210;10.628;2023-02-12T09:26:22;44.70;;;21.58;;
8536;SDS011;4306;50.210;10.628;2023-02-12T09:28:50;46.40;;;22.85;;
8536;SDS011;4306;50.210;10.628;2023-02-12T09:31:19;44.47;;;22.60;;
8536;SDS011;4306;50.210;10.628;2023-02-12T09:33:50;49.55;;;22.63;;
8536;SDS011;4306;50.210;10.628;2023-02-12T09:36:17;49.15;;;24.08;;
8536;SDS011;4306;50.210;10.628;2023-02-12T09:38:46;47.30;;;24.98;;
8536;SDS011;4306;50.210;10.628;2023-02-12T09:41:30;55.65;;;28.17;;
8536;SDS011;4306;50.210;10.628;2023-02-12T09:44:19;42.70;;;22.55;;
8536;SDS011;4306;50.210;10.628;2023-02-12T09:46:49;43.53;;;22.65;;
8536;SDS011;4306;50.210;10.628;2023-02-12T09:49:22;61.30;;;29.45;;
8536;SDS011;4306;50.210;10.628;2023-02-12T09:52:05;57.55;;;28.70;;
8536;SDS011;4306;50.210;10.628;2023-02-12T09:54:39;47.60;;;24.75;;
8536;SDS011;4306;50.210;10.628;2023-02-12T09:57:11;48.42;;;21.98;;
8536;SDS011;4306;50.210;10.628;2023-02-12T09:59:44;45.67;;;23.05;;
8536;SDS011;4306;50.210;10.628;2023-02-12T10:02:15;45.83;;;22.08;;
8536;SDS011;4306;50.210;10.628;2023-02-12T10:04:44;46.35;;;22.10;;
8536;SDS011;4306;50.210;10.628;2023-02-12T10:07:15;46.50;;;22.88;;
8536;SDS011;4306;50.210;10.628;2023-02-12T10:09:55;43.60;;;21.73;;
8536;SDS011;4306;50.210;10.628;2023-02-12T10:12:44;49.20;;;22.73;;
8536;SDS011;4306;50.210;10.628;2023-02-12T10:15:19;50.38;;;22.92;;
8536;SDS011;4306;50.210;10.628;2023-02-12T10:17:58;44.35;;;23.25;;
8536;SDS011;4306;50.210;10.628;2023-02-12T10:20:56;47.88;;;23.35;;
8536;SDS011;4306;50.210;10.628;2023-02-12T10:26:25;47.08;;;22.77;;
8536;SDS011;4306;50.210;10.628;2023-02-12T10:28:56;45.58;;;23.58;;
8536;SDS011;4306;50.210;10.628;2023-02-12T10:31:28;44.95;;;21.65;;
8536;SDS011;4306;50.210;10.628;2023-02-12T10:33:57;38.33;;;20.08;;
8536;SDS011;4306;50.210;10.628;2023-02-12T10:36:28;43.08;;;21.10;;
8536;SDS011;4306;50.210;10.628;2023-02-12T10:39:05;37.47;;;19.95;;
8536;SDS011;4306;50.210;10.628;2023-02-12T10:41:42;39.35;;;20.33;;
8536;SDS011;4306;50.210;10.628;2023-02-12T10:44:11;39.00;;;21.25;;
8536;SDS011;4306;50.210;10.628;2023-02-12T10:46:38;39.10;;;18.88;;
8536;SDS011;4306;50.210;10.628;2023-02-12T10:49:05;35.75;;;18.52;;
8536;SDS011;4306;50.210;10.628;2023-02-12T10:51:42;40.75;;;20.25;;
8536;SDS011;4306;50.210;10.628;2023-02-12T10:54:38;41.63;;;21.70;;
8536;SDS011;4306;50.210;10.628;2023-02-12T10:57:09;38.33;;;19.88;;
8536;SDS011;4306;50.210;10.628;2023-02-12T10:59:38;41.67;;;20.48;;
8536;SDS011;4306;50.210;10.628;2023-02-12T11:02:15;48.13;;;24.88;;
8536;SDS011;4306;50.210;10.628;2023-02-12T11:04:51;40.00;;;20.27;;
8536;SDS011;4306;50.210;10.628;2023-02-12T11:07:19;44.80;;;22.80;;
8536;SDS011;4306;50.210;10.628;2023-02-12T11:09:48;45.03;;;22.35;;
8536;SDS011;4306;50.210;10.628;2023-02-12T11:12:20;44.80;;;21.77;;
8536;SDS011;4306;50.210;10.628;2023-02-12T11:14:54;43.60;;;21.02;;
8536;SDS011;4306;50.210;10.628;2023-02-12T11:17:23;42.03;;;22.33;;
8536;SDS011;4306;50.210;10.628;2023-02-12T11:20:00;43.78;;;22.35;;
8536;SDS011;4306;50.210;10.628;2023-02-12T11:22:29;40.83;;;21.95;;
8536;SDS011;4306;50.210;10.628;2023-02-12T11:24:58;40.13;;;21.85;;
8536;SDS011;4306;50.210;10.628;2023-02-12T11:27:29;47.30;;;24.23;;
8536;SDS011;4306;50.210;10.628;2023-02-12T11:30:10;33.90;;;17.92;;
8536;SDS011;4306;50.210;10.628;2023-02-12T11:32:39;33.95;;;18.08;;
8536;SDS011;4306;50.210;10.628;2023-02-12T11:35:11;32.15;;;17.52;;
8536;SDS011;4306;50.210;10.628;2023-02-12T11:37:39;30.08;;;15.63;;
8536;SDS011;4306;50.210;10.628;2023-02-12T11:40:14;29.10;;;15.63;;
8536;SDS011;4306;50.210;10.628;2023-02-12T11:42:45;28.30;;;15.48;;
8536;SDS011;4306;50.210;10.628;2023-02-12T11:45:15;26.15;;;13.55;;
8536;SDS011;4306;50.210;10.628;2023-02-12T11:47:44;25.67;;;14.50;;
8536;SDS011;4306;50.210;10.628;2023-02-12T11:50:17;31.63;;;20.30;;
8536;SDS011;4306;50.210;10.628;2023-02-12T11:52:51;25.50;;;12.60;;
8536;SDS011;4306;50.210;10.628;2023-02-12T11:55:21;23.85;;;12.75;;
8536;SDS011;4306;50.210;10.628;2023-02-12T11:57:53;24.73;;;13.27;;
8536;SDS011;4306;50.210;10.628;2023-02-12T12:00:31;27.17;;;13.98;;
8536;SDS011;4306;50.210;10.628;2023-02-12T12:03:04;28.23;;;16.10;;
8536;SDS011;4306;50.210;10.628;2023-02-12T12:05:38;28.52;;;16.33;;
8536;SDS011;4306;50.210;10.628;2023-02-12T12:08:11;25.33;;;14.40;;
8536;SDS011;4306;50.210;10.628;2023-02-12T12:10:45;25.95;;;13.75;;
8536;SDS011;4306;50.210;10.628;2023-02-12T12:13:18;29.80;;;15.55;;
8536;SDS011;4306;50.210;10.628;2023-02-12T12:15:50;28.40;;;14.63;;
8536;SDS011;4306;50.210;10.628;2023-02-12T12:18:41;22.98;;;13.43;;
8536;SDS011;4306;50.210;10.628;2023-02-12T12:21:33;27.63;;;14.50;;
8536;SDS011;4306;50.210;10.628;2023-02-12T12:24:08;24.20;;;13.75;;
8536;SDS011;4306;50.210;10.628;2023-02-12T12:26:39;24.73;;;13.85;;
8536;SDS011;4306;50.210;10.628;2023-02-12T12:29:15;24.70;;;12.52;;
8536;SDS011;4306;50.210;10.628;2023-02-12T12:31:48;23.67;;;13.13;;
8536;SDS011;4306;50.210;10.628;2023-02-12T12:34:20;23.60;;;12.95;;
8536;SDS011;4306;50.210;10.628;2023-02-12T12:36:54;19.55;;;11.93;;
8536;SDS011;4306;50.210;10.628;2023-02-12T12:39:44;19.83;;;11.15;;
8536;SDS011;4306;50.210;10.628;2023-02-12T12:42:38;19.40;;;11.25;;
8536;SDS011;4306;50.210;10.628;2023-02-12T12:45:34;18.65;;;10.77;;
8536;SDS011;4306;50.210;10.628;2023-02-12T12:48:19;17.67;;;10.60;;
8536;SDS011;4306;50.210;10.628;2023-02-12T12:51:02;20.90;;;10.57;;
8536;SDS011;4306;50.210;10.628;2023-02-12T12:53:43;18.63;;;10.93;;
8536;SDS011;4306;50.210;10.628;2023-02-12T12:56:38;74.70;;;38.28;;
8536;SDS011;4306;50.210;10.628;2023-02-12T12:59:31;20.80;;;11.82;;
8536;SDS011;4306;50.210;10.628;2023-02-12T13:08:10;19.55;;;11.18;;
8536;SDS011;4306;50.210;10.628;2023-02-12T13:10:46;21.65;;;11.32;;
8536;SDS011;4306;50.210;10.628;2023-02-12T13:13:23;21.40;;;11.27;;
8536;SDS011;4306;50.210;10.628;2023-02-12T13:15:56;19.67;;;10.80;;
8536;SDS011;4306;50.210;10.628;2023-02-12T13:18:33;21.45;;;13.20;;
8536;SDS011;4306;50.210;10.628;2023-02-12T13:21:12;25.27;;;14.85;;
8536;SDS011;4306;50.210;10.628;2023-02-12T13:23:49;23.70;;;15.05;;
8536;SDS011;4306;50.210;10.628;2023-02-12T13:26:21;24.85;;;14.85;;
8536;SDS011;4306;50.210;10.628;2023-02-12T13:28:55;23.45;;;12.55;;
8536;SDS011;4306;50.210;10.628;2023-02-12T13:31:27;22.75;;;13.23;;
8536;SDS011;4306;50.210;10.628;2023-02-12T13:33:58;22.13;;;13.60;;
8536;SDS011;4306;50.210;10.628;2023-02-12T13:36:27;26.75;;;13.38;;
8536;SDS011;4306;50.210;10.628;2023-02-12T13:38:55;20.85;;;12.07;;
8536;SDS011;4306;50.210;10.628;2023-02-12T13:41:28;19.48;;;11.60;;
8536;SDS011;4306;50.210;10.628;2023-02-12T13:44:00;19.77;;;11.25;;
8536;SDS011;4306;50.210;10.628;2023-02-12T13:46:34;18.15;;;10.77;;
8536;SDS011;4306;50.210;10.628;2023-02-12T13:49:15;20.90;;;12.80;;
8536;SDS011;4306;50.210;10.628;2023-02-12T13:51:49;22.60;;;13.45;;
8536;SDS011;4306;50.210;10.628;2023-02-12T13:54:38;22.13;;;12.75;;
8536;SDS011;4306;50.210;10.628;2023-02-12T13:57:14;35.17;;;17.20;;
8536;SDS011;4306;50.210;10.628;2023-02-12T13:59:44;33.78;;;19.00;;
8536;SDS011;4306;50.210;10.628;2023-02-12T14:05:20;20.50;;;11.05;;
8536;SDS011;4306;50.210;10.628;2023-02-12T14:07:57;19.80;;;10.98;;
8536;SDS011;4306;50.210;10.628;2023-02-12T14:10:28;17.67;;;9.68;;
8536;SDS011;4306;50.210;10.628;2023-02-12T14:12:58;16.40;;;9.48;;
8536;SDS011;4306;50.210;10.628;2023-02-12T14:15:38;17.02;;;8.65;;
8536;SDS011;4306;50.210;10.628;2023-02-12T14:27:25;12.88;;;8.23;;
8536;SDS011;4306;50.210;10.628;2023-02-12T14:29:59;17.02;;;9.38;;
8536;SDS011;4306;50.210;10.628;2023-02-12T14:32:58;23.65;;;15.02;;
8536;SDS011;4306;50.210;10.628;2023-02-12T14:35:36;19.10;;;9.93;;
8536;SDS011;4306;50.210;10.628;2023-02-12T14:41:22;18.80;;;9.93;;
8536;SDS011;4306;50.210;10.628;2023-02-12T14:50:16;18.42;;;10.80;;
8536;SDS011;4306;50.210;10.628;2023-02-12T14:52:50;21.42;;;11.77;;
8536;SDS011;4306;50.210;10.628;2023-02-12T14:55:22;18.80;;;11.13;;
8536;SDS011;4306;50.210;10.628;2023-02-12T14:57:58;20.98;;;11.43;;
8536;SDS011;4306;50.210;10.628;2023-02-12T15:00:28;18.05;;;11.23;;
8536;SDS011;4306;50.210;10.628;2023-02-12T15:03:00;24.45;;;13.68;;
8536;SDS011;4306;50.210;10.628;2023-02-12T15:05:40;24.35;;;12.48;;
8536;SDS011;4306;50.210;10.628;2023-02-12T15:08:11;24.08;;;13.50;;
8536;SDS011;4306;50.210;10.628;2023-02-12T15:10:46;26.52;;;13.93;;
8536;SDS011;4306;50.210;10.628;2023-02-12T15:13:18;24.42;;;13.32;;
8536;SDS011;4306;50.210;10.628;2023-02-12T15:15:54;30.10;;;15.80;;
8536;SDS011;4306;50.210;10.628;2023-02-12T15:18:25;27.92;;;14.65;;
8536;SDS011;4306;50.210;10.628;2023-02-12T15:20:58;25.88;;;14.43;;
8536;SDS011;4306;50.210;10.628;2023-02-12T15:23:29;26.23;;;14.75;;
8536;SDS011;4306;50.210;10.628;2023-02-12T15:25:59;20.27;;;10.95;;
8536;SDS011;4306;50.210;10.628;2023-02-12T15:28:29;23.17;;;12.02;;
8536;SDS011;4306;50.210;10.628;2023-02-12T15:30:59;24.52;;;12.30;;
8536;SDS011;4306;50.210;10.628;2023-02-12T15:33:28;22.00;;;11.90;;